Calgary, Canada
Current Conditions -  °F | °C
As of 12:00 PM on Friday 21 Nov 2014 (Local Time) from CYYC Reporting Station
Broken Clouds Broken Clouds  
Wind Chill:   Ceiling: 13000
Heat Index:   Visibility: 40mi
Dew Point: -6°   Wind: 17mph
Humidity: 34%   Direction: 280°W
Pressure: 29.55"   Gusts: 28mph
Location:  51.05°N, 114.06°W
Report Text: CYYC 211900Z 28015G24KT 40SM FEW060 FEW090 BKN130 09/M06 A2955 RMK SC1AC2AC3 SC TR SLP028 DENSITY ALT 4100FT
Loading
Personal Weather Stations






























Interactive Weather Map New forecast layout! Learn more

10-Day Weather Forecast

Advertisements
Track Severe Weather on mobile